Time;durP1;ratioP1;P1;durP2;ratioP2;P2;SDS_P1;SDS_P2;PMS_P1;PMS_P2;Temp;Humidity;BMP_temperature;BMP_pressure;BME280_temperature;BME280_humidity;BME280_pressure;Samples;Min_cycle;Max_cycle;Signal;HPM_P1;HPM_P2
2021/10/21 00:01:12;;;;;;;9.02;3.63;;;;;;;5.96;89.74;98615.25;4789374;29;20529;-76
2021/10/21 00:03:38;;;;;;;1.88;1.83;;;;;;;6.07;89.51;98611.16;4790193;29;20743;-75
2021/10/21 00:06:04;;;;;;;5.68;5.07;;;;;;;6.06;89.60;98614.66;4820591;29;20046;-75
2021/10/21 00:08:30;;;;;;;13.68;3.88;;;;;;;6.02;90.27;98597.63;4820230;29;20517;-76
2021/10/21 00:10:56;;;;;;;5.30;4.00;;;;;;;6.15;90.15;98593.41;4804141;29;20441;-77
2021/10/21 00:13:23;;;;;;;6.10;5.53;;;;;;;6.14;90.09;98560.66;4820167;29;20062;-75
2021/10/21 00:15:49;;;;;;;4.30;3.88;;;;;;;6.18;90.30;98541.41;4821717;29;20047;-75
2021/10/21 00:18:15;;;;;;;7.22;6.60;;;;;;;6.22;90.71;98547.25;4807584;29;20069;-76
2021/10/21 00:20:42;;;;;;;2.72;2.22;;;;;;;6.20;90.47;98549.94;4792222;29;20050;-77
2021/10/21 00:23:07;;;;;;;11.27;4.45;;;;;;;6.25;90.88;98568.63;4823697;29;20073;-77
2021/10/21 00:25:33;;;;;;;4.80;4.10;;;;;;;6.26;90.91;98553.94;4807057;29;20145;-76
2021/10/21 00:27:59;;;;;;;5.68;3.17;;;;;;;6.32;90.52;98525.06;4823518;29;20525;-77
2021/10/21 00:30:25;;;;;;;4.32;4.00;;;;;;;6.38;90.60;98508.34;4823204;29;20050;-78
2021/10/21 00:32:52;;;;;;;4.50;2.88;;;;;;;6.34;90.64;98483.53;4807207;29;20485;-78
2021/10/21 00:35:18;;;;;;;5.95;4.43;;;;;;;6.40;91.04;98519.44;4822773;29;20055;-77
2021/10/21 00:37:44;;;;;;;3.90;3.58;;;;;;;6.43;90.31;98522.69;4823712;29;20054;-79
2021/10/21 00:40:10;;;;;;;6.90;5.32;;;;;;;6.38;90.32;98526.47;4814408;29;20106;-78
2021/10/21 00:42:36;;;;;;;3.33;3.13;;;;;;;6.54;90.84;98542.78;4825082;29;20053;-77
2021/10/21 00:45:03;;;;;;;24.15;4.88;;;;;;;6.54;90.62;98542.78;4841543;29;20057;-76
2021/10/21 00:47:29;;;;;;;5.95;3.70;;;;;;;6.54;90.62;98522.06;4841353;29;20085;-75
2021/10/21 00:49:55;;;;;;;6.68;6.07;;;;;;;6.63;90.26;98526.66;4824989;29;20058;-76
2021/10/21 00:52:22;;;;;;;7.72;4.93;;;;;;;6.68;90.75;98519.44;4809939;29;20054;-77
2021/10/21 00:54:48;;;;;;;3.20;3.00;;;;;;;6.74;90.26;98512.13;4841565;29;20065;-77
2021/10/21 00:57:14;;;;;;;9.45;5.97;;;;;;;6.78;90.72;98507.59;4841338;29;20054;-76
2021/10/21 00:59:41;;;;;;;1.90;1.85;;;;;;;6.82;90.57;98501.28;4824783;29;20050;-77
2021/10/21 01:02:08;;;;;;;7.97;6.53;;;;;;;6.91;90.06;98495.53;4824882;29;20497;-76
2021/10/21 01:04:34;;;;;;;4.90;4.45;;;;;;;6.89;90.48;98505.19;4825020;29;20064;-79
2021/10/21 01:07:01;;;;;;;8.55;4.72;;;;;;;6.90;90.81;98488.69;4824788;29;20112;-77
2021/10/21 01:09:27;;;;;;;2.00;1.92;;;;;;;6.93;90.58;98488.50;4825480;29;20053;-77
2021/10/21 01:11:53;;;;;;;7.30;3.58;;;;;;;6.96;90.43;98485.72;4830319;29;20058;-76
2021/10/21 01:14:19;;;;;;;7.90;4.13;;;;;;;6.96;90.40;98477.94;4831279;29;20088;-78
2021/10/21 01:16:45;;;;;;;7.90;5.15;;;;;;;7.01;90.48;98464.66;4841067;29;20077;-77
2021/10/21 01:19:17;;;;;;;3.60;3.33;;;;;;;7.10;90.23;98469.28;4824541;29;20089;-78
2021/10/21 01:21:44;;;;;;;3.40;3.15;;;;;;;7.13;90.09;98469.91;4840752;29;20603;-77
2021/10/21 01:24:10;;;;;;;5.57;3.88;;;;;;;7.09;90.09;98463.25;4841218;29;20050;-76
2021/10/21 01:26:36;;;;;;;4.30;3.72;;;;;;;7.16;90.36;98468.91;4840068;29;20432;-76
2021/10/21 01:29:02;;;;;;;2.78;2.67;;;;;;;7.18;90.23;98452.28;4824453;29;20053;-76
2021/10/21 01:31:28;;;;;;;2.50;2.15;;;;;;;7.26;89.91;98460.41;4824149;29;20442;-77
2021/10/21 01:33:55;;;;;;;5.45;4.93;;;;;;;7.38;89.72;98442.41;4809033;29;20140;-75
2021/10/21 01:36:21;;;;;;;3.42;3.25;;;;;;;7.42;89.54;98443.88;4840816;29;20053;-77
2021/10/21 01:38:47;;;;;;;3.47;2.92;;;;;;;7.45;89.70;98464.44;4824097;29;20058;-75
2021/10/21 01:41:13;;;;;;;11.43;4.20;;;;;;;7.45;89.51;98464.44;4823754;29;20054;-77
2021/10/21 01:43:43;;;;;;;11.45;6.22;;;;;;;7.49;89.49;98458.13;4824044;29;20061;-77
2021/10/21 01:46:09;;;;;;;7.13;4.65;;;;;;;7.49;89.63;98450.34;4824224;29;20080;-78
2021/10/21 01:48:36;;;;;;;7.72;5.38;;;;;;;7.54;89.61;98437.88;4840514;29;20679;-78
2021/10/21 01:51:03;;;;;;;5.55;2.58;;;;;;;7.58;89.33;98434.16;4825170;29;20453;-77
2021/10/21 01:53:28;;;;;;;3.08;2.60;;;;;;;7.57;89.51;98433.31;4843866;29;20073;-78
2021/10/21 01:55:55;;;;;;;9.85;4.60;;;;;;;7.62;89.51;98438.22;4854718;29;20045;-77
2021/10/21 01:58:20;;;;;;;5.05;2.58;;;;;;;7.61;89.66;98439.16;4870744;29;20061;-78
2021/10/21 02:00:46;;;;;;;6.85;6.00;;;;;;;7.58;89.69;98423.75;4844086;29;20419;-79
2021/10/21 02:03:12;;;;;;;4.30;2.63;;;;;;;7.58;89.64;98419.41;4842417;29;20157;-76
2021/10/21 02:05:39;;;;;;;15.75;4.40;;;;;;;7.62;90.03;98427.84;4858608;29;20068;-77
2021/10/21 02:08:05;;;;;;;9.00;4.63;;;;;;;7.66;90.11;98419.72;4842510;29;20149;-78
2021/10/21 02:10:31;;;;;;;3.65;3.42;;;;;;;7.64;89.91;98402.59;4841728;29;20063;-79
2021/10/21 02:12:57;;;;;;;3.72;3.53;;;;;;;7.64;90.12;98392.19;4858444;29;20070;-79
2021/10/21 02:15:23;;;;;;;3.83;3.60;;;;;;;7.65;90.53;98404.25;4858714;29;20057;-79
2021/10/21 02:17:49;;;;;;;6.13;4.38;;;;;;;7.70;90.53;98407.38;4858428;29;20045;-79
2021/10/21 02:20:16;;;;;;;4.00;3.70;;;;;;;7.72;90.27;98397.72;4841903;29;20072;-79
2021/10/21 02:22:42;;;;;;;5.70;4.97;;;;;;;7.74;90.17;98388.88;4842247;29;20061;-78
2021/10/21 02:25:10;;;;;;;8.10;6.75;;;;;;;7.73;90.38;98379.44;4847099;29;20111;-77
2021/10/21 02:27:36;;;;;;;15.60;4.93;;;;;;;7.81;90.49;98399.69;4842035;29;20653;-78
2021/10/21 02:30:02;;;;;;;2.75;2.55;;;;;;;7.88;90.32;98406.16;4842064;29;20065;-80
2021/10/21 02:32:28;;;;;;;7.93;5.50;;;;;;;7.84;90.44;98386.50;4858086;29;20071;-81
2021/10/21 02:34:54;;;;;;;4.35;4.00;;;;;;;7.93;90.27;98392.84;4841553;29;20428;-78
2021/10/21 02:37:20;;;;;;;6.55;3.08;;;;;;;7.93;90.16;98391.06;4841339;29;20057;-79
2021/10/21 02:39:46;;;;;;;6.85;4.10;;;;;;;7.97;90.29;98389.94;4840804;29;20099;-77
2021/10/21 02:42:12;;;;;;;14.60;8.15;;;;;;;8.00;90.53;98379.34;4858094;29;20603;-78
2021/10/21 02:44:38;;;;;;;8.68;6.25;;;;;;;8.05;90.28;98382.44;4857845;29;20062;-78
2021/10/21 02:47:04;;;;;;;7.55;5.43;;;;;;;8.10;90.34;98364.78;4857845;29;20540;-79
2021/10/21 02:49:30;;;;;;;16.83;8.13;;;;;;;8.14;90.28;98355.84;4841182;29;20049;-77
2021/10/21 02:51:57;;;;;;;7.55;5.40;;;;;;;8.19;90.35;98358.94;4841172;29;20771;-79
2021/10/21 02:54:23;;;;;;;5.47;4.78;;;;;;;8.19;90.14;98358.94;4858060;29;20085;-79
2021/10/21 02:56:50;;;;;;;8.80;5.82;;;;;;;8.23;90.06;98354.38;4857486;29;20177;-81
2021/10/21 02:59:15;;;;;;;8.25;5.60;;;;;;;8.26;90.01;98343.75;4842381;29;20204;-80
2021/10/21 03:01:42;;;;;;;10.57;5.60;;;;;;;8.34;90.04;98334.50;4858735;29;20477;-80
2021/10/21 03:04:08;;;;;;;5.90;5.38;;;;;;;8.38;89.28;98327.31;4841825;29;20520;-80
2021/10/21 03:06:34;;;;;;;5.13;4.30;;;;;;;8.39;89.92;98329.00;4841093;29;20188;-80
2021/10/21 03:09:00;;;;;;;9.88;7.18;;;;;;;8.48;89.94;98322.28;4858070;29;20424;-80
2021/10/21 03:11:26;;;;;;;4.13;3.83;;;;;;;8.52;89.59;98327.19;4858013;29;20046;-81
2021/10/21 03:13:52;;;;;;;4.03;3.67;;;;;;;8.57;89.62;98332.06;4857442;29;20413;-79
2021/10/21 03:16:18;;;;;;;6.32;3.88;;;;;;;8.59;89.28;98324.97;4857440;29;20272;-80
2021/10/21 03:18:44;;;;;;;3.13;2.95;;;;;;;8.66;89.23;98305.41;4857675;29;20377;-80
2021/10/21 03:21:10;;;;;;;8.02;2.92;;;;;;;8.69;89.16;98302.56;4841347;29;20049;-79
2021/10/21 03:23:35;;;;;;;5.15;4.82;;;;;;;8.70;89.25;98296.44;4840820;29;20089;-79
2021/10/21 03:26:01;;;;;;;15.98;7.72;;;;;;;8.80;88.46;98279.22;4857203;29;20073;-79
2021/10/21 03:28:27;;;;;;;3.97;3.33;;;;;;;8.85;88.30;98305.72;4857501;29;20053;-78
2021/10/21 03:30:53;;;;;;;11.93;5.43;;;;;;;8.86;88.53;98302.19;4857369;29;20050;-80
2021/10/21 03:33:20;;;;;;;8.57;7.03;;;;;;;8.86;88.55;98282.22;4857400;29;20078;-78
2021/10/21 03:35:46;;;;;;;3.08;2.97;;;;;;;8.94;88.04;98292.03;4857373;29;20053;-78
2021/10/21 03:38:12;;;;;;;4.32;4.13;;;;;;;8.97;88.42;98273.59;4825559;29;20084;-78
2021/10/21 03:40:38;;;;;;;4.72;4.20;;;;;;;9.04;87.31;98264.41;4840486;29;20061;-78
2021/10/21 03:43:04;;;;;;;3.88;3.65;;;;;;;9.07;87.40;98258.97;4857219;29;20136;-81
2021/10/21 03:45:30;;;;;;;5.50;4.50;;;;;;;9.04;87.46;98261.78;4858037;29;20457;-81
2021/10/21 03:47:57;;;;;;;8.05;5.15;;;;;;;9.12;86.75;98269.03;4826046;29;20050;-81
2021/10/21 03:50:23;;;;;;;7.15;5.93;;;;;;;9.12;87.48;98269.88;4845011;29;20061;-81
2021/10/21 03:52:49;;;;;;;4.90;3.25;;;;;;;9.14;87.19;98256.72;4861537;29;20053;-80
2021/10/21 03:55:15;;;;;;;5.60;5.15;;;;;;;9.16;86.67;98289.50;4844450;29;20440;-79
2021/10/21 03:57:42;;;;;;;2.67;2.58;;;;;;;9.22;86.55;98302.09;4828780;29;20113;-78
2021/10/21 04:00:08;;;;;;;3.03;2.90;;;;;;;9.27;86.47;98302.56;4844666;29;20126;-78
2021/10/21 04:02:40;;;;;;;5.18;4.72;;;;;;;9.26;86.38;98290.47;4847162;29;20534;-81
2021/10/21 04:05:06;;;;;;;9.10;4.88;;;;;;;9.28;86.48;98272.16;4843067;29;20145;-80
2021/10/21 04:07:34;;;;;;;5.57;5.05;;;;;;;9.30;85.75;98270.25;4811127;29;20137;-80
2021/10/21 04:10:01;;;;;;;8.77;5.15;;;;;;;9.32;86.02;98269.22;4842601;29;20551;-78
2021/10/21 04:12:27;;;;;;;5.43;4.20;;;;;;;9.37;85.25;98267.09;4842244;29;20540;-79
2021/10/21 04:14:53;;;;;;;5.28;4.80;;;;;;;9.41;85.36;98272.91;4843374;29;20162;-81
2021/10/21 04:17:21;;;;;;;6.13;5.60;;;;;;;9.37;86.22;98272.28;4861138;29;20114;-80
2021/10/21 04:19:47;;;;;;;8.13;5.40;;;;;;;9.37;85.90;98256.66;4859663;29;20049;-81
2021/10/21 04:22:15;;;;;;;5.68;5.18;;;;;;;9.40;85.30;98259.03;4860751;29;20856;-78
2021/10/21 04:24:42;;;;;;;5.32;4.82;;;;;;;9.46;85.11;98273.38;4860477;29;20053;-80
2021/10/21 04:27:08;;;;;;;17.02;3.22;;;;;;;9.46;85.64;98252.53;4844636;29;20057;-78
2021/10/21 04:29:34;;;;;;;2.95;2.83;;;;;;;9.52;85.16;98259.06;4860841;29;20061;-78
2021/10/21 04:32:00;;;;;;;6.00;4.53;;;;;;;9.50;85.59;98242.72;4844384;29;20140;-79
2021/10/21 04:34:26;;;;;;;2.45;2.35;;;;;;;9.55;84.61;98253.63;4844114;29;20077;-79
2021/10/21 04:36:52;;;;;;;3.35;3.08;;;;;;;9.57;85.01;98236.09;4860133;29;20149;-82
2021/10/21 04:39:18;;;;;;;4.28;3.97;;;;;;;9.61;84.82;98227.94;4844226;29;20062;-80
2021/10/21 04:41:44;;;;;;;3.65;3.35;;;;;;;9.64;84.29;98224.25;4801696;29;20061;-81
2021/10/21 04:44:10;;;;;;;3.58;3.38;;;;;;;9.69;84.43;98241.19;4805028;29;20054;-80
2021/10/21 04:46:36;;;;;;;3.45;3.25;;;;;;;9.65;84.26;98228.53;4823891;29;20115;-81
2021/10/21 04:49:03;;;;;;;4.82;4.50;;;;;;;9.68;84.23;98244.75;4808362;29;20046;-79
2021/10/21 04:51:29;;;;;;;4.20;4.00;;;;;;;9.75;84.15;98229.47;4807608;29;20054;-80
2021/10/21 04:53:55;;;;;;;3.22;3.03;;;;;;;9.81;83.35;98235.03;4823605;29;20115;-79
2021/10/21 04:56:21;;;;;;;6.22;5.72;;;;;;;9.80;84.03;98227.31;4823600;29;20059;-77
2021/10/21 04:58:47;;;;;;;4.22;3.72;;;;;;;9.86;83.66;98232.06;4836653;29;20046;-76
2021/10/21 05:01:13;;;;;;;4.65;4.30;;;;;;;9.82;84.39;98225.41;4824185;29;20077;-76
2021/10/21 05:03:39;;;;;;;4.80;4.30;;;;;;;9.85;83.53;98240.81;4843744;29;20057;-78
2021/10/21 05:06:05;;;;;;;16.17;3.60;;;;;;;9.79;83.69;98241.28;4844605;29;20065;-76
2021/10/21 05:08:31;;;;;;;3.30;2.75;;;;;;;9.88;84.29;98256.25;4841709;29;20082;-80
2021/10/21 05:10:57;;;;;;;3.25;2.97;;;;;;;9.90;83.88;98262.16;4824797;29;20486;-80
2021/10/21 05:13:26;;;;;;;2.97;2.78;;;;;;;9.91;84.34;98256.81;4825195;29;20110;-80
2021/10/21 05:15:52;;;;;;;5.60;3.72;;;;;;;10.01;83.32;98243.91;4841062;29;20081;-81
2021/10/21 05:18:18;;;;;;;4.32;3.58;;;;;;;9.99;83.32;98247.56;4824760;29;20085;-80
2021/10/21 05:20:45;;;;;;;2.47;2.35;;;;;;;9.97;83.53;98247.69;4824523;29;20536;-77
2021/10/21 05:23:11;;;;;;;7.22;3.65;;;;;;;9.96;83.81;98243.44;4841543;29;20061;-77
2021/10/21 05:25:37;;;;;;;5.45;4.95;;;;;;;9.91;84.08;98237.75;4843057;29;20054;-81
2021/10/21 05:28:04;;;;;;;4.10;3.80;;;;;;;9.95;83.95;98231.34;4850227;29;20081;-78
2021/10/21 05:30:31;;;;;;;6.03;5.47;;;;;;;10.01;83.81;98238.69;4821308;29;20085;-78
2021/10/21 05:32:58;;;;;;;3.85;3.50;;;;;;;9.96;84.25;98248.63;4833900;29;20072;-79
2021/10/21 05:35:24;;;;;;;10.32;6.95;;;;;;;10.03;83.84;98223.75;4825507;29;20049;-75
2021/10/21 05:37:50;;;;;;;8.85;6.15;;;;;;;10.02;83.52;98211.66;4824515;29;20061;-76
2021/10/21 05:40:20;;;;;;;11.63;3.72;;;;;;;10.01;84.18;98224.84;4831944;29;20532;-76
2021/10/21 05:42:47;;;;;;;5.57;4.97;;;;;;;10.03;84.15;98249.00;4858934;29;20144;-77
2021/10/21 05:45:13;;;;;;;5.13;4.68;;;;;;;9.98;84.60;98236.31;4859342;29;20063;-76
2021/10/21 05:47:41;;;;;;;4.38;3.97;;;;;;;10.06;84.33;98236.53;4827308;29;20432;-77
2021/10/21 05:50:08;;;;;;;3.60;3.00;;;;;;;10.07;84.84;98233.00;4859326;29;20125;-77
2021/10/21 05:52:38;;;;;;;3.88;3.67;;;;;;;10.06;84.22;98254.78;4826732;29;20057;-75
2021/10/21 05:55:04;;;;;;;15.80;7.65;;;;;;;10.07;84.71;98248.66;4858683;29;20090;-74
2021/10/21 05:57:30;;;;;;;5.70;4.20;;;;;;;10.13;84.68;98237.72;4842094;29;20045;-73
2021/10/21 05:59:56;;;;;;;5.03;4.55;;;;;;;10.24;84.23;98242.13;4858350;29;20141;-74
2021/10/21 06:02:22;;;;;;;6.55;3.97;;;;;;;10.24;83.80;98255.97;4858840;29;20066;-75
2021/10/21 06:04:48;;;;;;;2.38;2.25;;;;;;;10.21;84.23;98264.03;4858070;29;20061;-81
2021/10/21 06:07:14;;;;;;;4.95;2.85;;;;;;;10.23;84.31;98245.69;4844400;29;20061;-80
2021/10/21 06:09:41;;;;;;;3.70;3.42;;;;;;;10.24;84.23;98252.56;4828829;29;20057;-78
2021/10/21 06:12:08;;;;;;;5.55;4.75;;;;;;;10.30;84.36;98252.91;4842207;29;20069;-78
2021/10/21 06:14:34;;;;;;;3.05;2.80;;;;;;;10.28;84.35;98254.78;4859088;29;20054;-80
2021/10/21 06:17:01;;;;;;;5.97;4.43;;;;;;;10.30;84.26;98257.28;4858837;29;20057;-78
2021/10/21 06:19:27;;;;;;;6.43;4.32;;;;;;;10.21;84.96;98242.38;4858883;29;20132;-78
2021/10/21 06:22:04;;;;;;;5.97;4.95;;;;;;;10.17;85.78;98228.75;4858149;29;20057;-76
2021/10/21 06:24:30;;;;;;;3.80;3.60;;;;;;;10.17;86.21;98207.91;4858998;29;20587;-77
2021/10/21 06:26:58;;;;;;;4.25;3.95;;;;;;;10.09;86.74;98212.00;4840025;29;20088;-78
2021/10/21 06:29:24;;;;;;;4.57;4.28;;;;;;;10.07;86.69;98206.94;4848067;29;20079;-79
2021/10/21 06:31:50;;;;;;;5.63;4.15;;;;;;;10.06;87.62;98218.28;4819453;29;20046;-80
2021/10/21 06:34:16;;;;;;;4.35;3.95;;;;;;;10.15;87.13;98209.78;4837670;29;20520;-77
2021/10/21 06:36:42;;;;;;;4.30;4.00;;;;;;;10.17;86.55;98226.16;4858347;29;20481;-78
2021/10/21 06:39:09;;;;;;;5.72;3.40;;;;;;;10.14;87.18;98215.13;4847907;29;20061;-78
2021/10/21 06:41:53;;;;;;;4.10;3.80;;;;;;;10.17;87.55;98220.09;4855166;29;20060;-76
2021/10/21 06:44:38;;;;;;;5.20;4.85;;;;;;;10.22;85.75;98205.72;4844945;29;20531;-79
2021/10/21 06:47:23;;;;;;;5.85;5.32;;;;;;;10.25;86.60;98208.09;4844067;29;20059;-79
2021/10/21 06:50:09;;;;;;;2.15;2.05;;;;;;;10.30;85.85;98200.75;4858068;29;20059;-79
2021/10/21 06:52:54;;;;;;;3.80;3.53;;;;;;;10.28;86.19;98209.63;4857937;29;20490;-79
2021/10/21 06:55:21;;;;;;;3.90;3.60;;;;;;;10.28;86.66;98213.06;4826424;29;20470;-81
2021/10/21 06:57:47;;;;;;;3.20;2.92;;;;;;;10.24;86.85;98223.88;4862816;29;20061;-79
2021/10/21 07:00:14;;;;;;;4.25;3.95;;;;;;;10.22;86.80;98225.75;4848705;29;20462;-79
2021/10/21 07:02:46;;;;;;;3.00;2.80;;;;;;;10.27;86.90;98216.63;4833893;29;20065;-83
2021/10/21 07:05:13;;;;;;;4.95;4.50;;;;;;;10.25;87.00;98202.88;4866594;29;20060;-77
2021/10/21 07:07:39;;;;;;;2.20;2.10;;;;;;;10.25;87.05;98208.09;4857904;29;20054;-74
2021/10/21 07:10:06;;;;;;;3.80;3.55;;;;;;;10.22;87.38;98182.25;4862986;29;20052;-74
2021/10/21 07:12:33;;;;;;;2.45;2.28;;;;;;;10.37;86.16;98165.38;4852436;29;20053;-74
2021/10/21 07:14:59;;;;;;;2.45;2.35;;;;;;;10.45;86.10;98162.16;4836241;29;20053;-80
2021/10/21 07:17:26;;;;;;;2.75;2.55;;;;;;;10.49;85.42;98183.59;4840060;29;20058;-80
2021/10/21 07:19:52;;;;;;;2.00;1.90;;;;;;;10.47;85.75;98188.13;4841368;29;20054;-78
2021/10/21 07:22:19;;;;;;;3.83;3.50;;;;;;;10.51;85.85;98226.88;4856223;29;20215;-79
2021/10/21 07:24:45;;;;;;;3.58;3.38;;;;;;;10.53;86.07;98234.59;4847682;29;20409;-79
2021/10/21 07:27:11;;;;;;;4.57;3.83;;;;;;;10.54;85.78;98233.59;4847521;29;20091;-77
2021/10/21 07:29:37;;;;;;;2.60;2.20;;;;;;;10.62;85.31;98226.00;4857568;29;20084;-83
2021/10/21 07:32:04;;;;;;;1.55;1.55;;;;;;;10.68;84.83;98215.91;4857392;29;20104;-81
2021/10/21 07:34:30;;;;;;;2.42;2.33;;;;;;;10.72;84.70;98217.31;4839695;29;20466;-80
2021/10/21 07:36:58;;;;;;;3.83;2.72;;;;;;;10.69;85.03;98216.72;4845275;29;20092;-79
2021/10/21 07:39:25;;;;;;;3.58;3.25;;;;;;;10.70;84.61;98228.84;4813114;29;20064;-79
2021/10/21 07:41:51;;;;;;;4.40;2.75;;;;;;;10.74;84.68;98232.81;4833160;29;20050;-77
2021/10/21 07:44:18;;;;;;;3.35;3.15;;;;;;;10.78;84.40;98231.63;4851331;29;20057;-78
2021/10/21 07:46:48;;;;;;;3.20;3.08;;;;;;;10.82;83.89;98246.94;4811802;29;20144;-77
2021/10/21 07:49:15;;;;;;;3.75;3.40;;;;;;;10.84;83.92;98237.19;4837299;29;20054;-77
2021/10/21 07:51:41;;;;;;;0.93;0.93;;;;;;;10.80;84.73;98227.09;4846182;29;20093;-83
2021/10/21 07:54:08;;;;;;;2.78;2.65;;;;;;;10.89;83.89;98255.09;4822985;29;20140;-80
2021/10/21 07:56:34;;;;;;;4.43;4.13;;;;;;;10.90;83.94;98248.88;4850491;29;20057;-80
2021/10/21 07:59:01;;;;;;;1.65;1.55;;;;;;;10.94;84.07;98253.75;4856783;29;20072;-78
2021/10/21 08:01:28;;;;;;;3.15;2.95;;;;;;;10.91;84.22;98253.16;4858416;29;20065;-79
2021/10/21 08:03:54;;;;;;;3.38;3.08;;;;;;;10.98;83.92;98270.00;4821124;29;20053;-76
2021/10/21 08:06:20;;;;;;;9.40;3.88;;;;;;;10.96;84.37;98272.72;4838963;29;20136;-82
2021/10/21 08:08:47;;;;;;;2.92;2.30;;;;;;;10.94;84.28;98263.34;4858389;29;20083;-80
2021/10/21 08:11:13;;;;;;;13.35;3.42;;;;;;;11.03;83.37;98261.78;4838836;29;20057;-80
2021/10/21 08:13:40;;;;;;;2.80;2.60;;;;;;;11.08;82.74;98268.28;4821800;29;20054;-79
2021/10/21 08:16:05;;;;;;;2.05;1.95;;;;;;;11.04;83.90;98259.03;4842855;29;20072;-79
2021/10/21 08:18:32;;;;;;;3.42;3.17;;;;;;;11.09;83.01;98262.13;4855287;29;20056;-79
2021/10/21 08:20:58;;;;;;;4.10;2.72;;;;;;;11.08;83.11;98255.22;4837604;29;20049;-79
2021/10/21 08:23:24;;;;;;;5.20;4.80;;;;;;;11.17;82.66;98259.69;4854398;29;20060;-76
2021/10/21 08:25:50;;;;;;;5.10;4.80;;;;;;;11.15;82.88;98260.78;4853925;29;20053;-79
2021/10/21 08:28:16;;;;;;;3.42;3.13;;;;;;;11.17;83.15;98249.25;4812759;29;20057;-77
2021/10/21 08:30:43;;;;;;;2.80;2.65;;;;;;;11.18;82.92;98250.06;4855827;29;20064;-77
2021/10/21 08:33:13;;;;;;;5.97;4.72;;;;;;;11.22;81.95;98225.38;4817965;29;20049;-76
2021/10/21 08:35:40;;;;;;;1.45;1.45;;;;;;;11.23;82.05;98233.06;4832790;29;20132;-77
2021/10/21 08:38:06;;;;;;;3.25;3.05;;;;;;;11.26;82.12;98243.25;4834573;29;20148;-79
2021/10/21 08:40:33;;;;;;;3.00;2.80;;;;;;;11.28;82.27;98250.97;4831377;29;20064;-82
2021/10/21 08:43:04;;;;;;;2.83;2.67;;;;;;;11.32;81.88;98227.06;4833827;29;20547;-79
2021/10/21 08:45:30;;;;;;;2.83;2.72;;;;;;;11.39;81.92;98249.09;4832274;29;20054;-83
2021/10/21 08:48:01;;;;;;;3.33;3.13;;;;;;;11.39;82.04;98256.09;4840674;29;20054;-76
2021/10/21 08:50:27;;;;;;;2.63;2.53;;;;;;;11.38;82.03;98254.47;4824420;29;20125;-78
2021/10/21 08:52:53;;;;;;;3.28;2.97;;;;;;;11.33;82.22;98259.22;4828621;29;20046;-76
2021/10/21 08:55:19;;;;;;;2.95;2.80;;;;;;;11.42;82.27;98255.84;4837976;29;20065;-75
2021/10/21 08:57:45;;;;;;;3.40;3.20;;;;;;;11.48;81.55;98226.63;4834489;29;20051;-77
2021/10/21 09:00:13;;;;;;;3.97;3.67;;;;;;;11.56;80.68;98212.88;4819257;29;20180;-75
2021/10/21 09:02:52;;;;;;;7.53;3.10;;;;;;;11.63;80.33;98199.16;4849412;29;20058;-76
2021/10/21 09:08:15;;;;;;;2.67;2.55;;;;;;;11.61;81.18;98210.72;4841696;29;20045;-77
2021/10/21 09:10:53;;;;;;;4.00;2.50;;;;;;;11.67;80.22;98197.13;4842138;29;20121;-78
2021/10/21 09:13:27;;;;;;;3.88;2.63;;;;;;;11.68;80.67;98196.97;4841455;29;20058;-75
2021/10/21 09:15:56;;;;;;;8.40;2.63;;;;;;;11.68;80.41;98191.75;4840281;29;20077;-76
2021/10/21 09:18:23;;;;;;;1.90;1.90;;;;;;;11.75;80.34;98216.44;4824132;29;20062;-80
2021/10/21 09:20:49;;;;;;;3.50;3.13;;;;;;;11.77;80.30;98209.31;4833786;29;20680;-79
2021/10/21 09:23:18;;;;;;;3.03;2.80;;;;;;;11.90;79.91;98230.00;4823600;29;20089;-79
2021/10/21 09:25:45;;;;;;;2.42;2.33;;;;;;;11.95;79.46;98235.63;4836483;29;20133;-82
2021/10/21 09:28:24;;;;;;;4.13;2.90;;;;;;;12.00;79.47;98233.47;4823015;29;20493;-81
2021/10/21 09:30:52;;;;;;;2.85;2.67;;;;;;;12.02;78.88;98242.84;4841693;29;20061;-80
2021/10/21 09:33:18;;;;;;;2.28;2.20;;;;;;;12.05;78.93;98231.28;4843115;29;20060;-81
2021/10/21 09:36:12;;;;;;;2.28;2.17;;;;;;;12.13;78.35;98249.75;4838335;29;20269;-81
2021/10/21 09:38:47;;;;;;;4.38;4.07;;;;;;;12.13;78.40;98254.97;4837211;29;20210;-80
2021/10/21 09:41:17;;;;;;;6.72;3.08;;;;;;;12.26;78.31;98255.56;4840861;29;20058;-77
2021/10/21 09:43:43;;;;;;;28.85;3.08;;;;;;;12.22;79.07;98261.19;4793641;29;20110;-79
2021/10/21 09:46:48;;;;;;;2.78;2.67;;;;;;;12.22;77.99;98259.41;4810225;29;20528;-78
2021/10/21 09:49:33;;;;;;;1.10;1.10;;;;;;;12.23;77.87;98250.63;4747337;30;20060;-78
2021/10/21 09:52:03;;;;;;;2.80;2.60;;;;;;;12.32;77.88;98228.88;4712563;30;20136;-79
2021/10/21 09:54:31;;;;;;;3.60;2.33;;;;;;;12.38;77.23;98228.31;4797327;29;20073;-79
2021/10/21 09:57:02;;;;;;;3.88;3.58;;;;;;;12.41;77.28;98235.91;4823982;29;20046;-80
2021/10/21 09:59:32;;;;;;;2.47;2.35;;;;;;;12.44;77.22;98232.19;4830358;29;20061;-77
2021/10/21 10:02:06;;;;;;;3.03;2.83;;;;;;;12.48;77.18;98234.41;4791685;29;20062;-81
2021/10/21 10:04:33;;;;;;;2.78;2.55;;;;;;;12.49;77.17;98233.44;4821747;29;20065;-81
2021/10/21 10:06:59;;;;;;;2.88;2.78;;;;;;;12.61;76.91;98238.53;4826119;29;20144;-79
2021/10/21 10:09:30;;;;;;;5.93;3.20;;;;;;;12.78;76.12;98230.00;4792908;29;20211;-76
2021/10/21 10:11:58;;;;;;;2.15;2.05;;;;;;;12.83;76.13;98243.50;4823452;29;20054;-77
2021/10/21 10:14:26;;;;;;;8.18;2.95;;;;;;;12.91;76.00;98235.81;4816751;29;20054;-80
2021/10/21 10:16:52;;;;;;;3.65;3.35;;;;;;;13.06;75.36;98239.63;4805225;29;20119;-78
2021/10/21 10:19:18;;;;;;;6.50;2.60;;;;;;;13.24;74.85;98247.66;4833630;29;20114;-78
2021/10/21 10:21:44;;;;;;;2.13;2.03;;;;;;;13.47;73.85;98233.28;4823220;29;20064;-77
2021/10/21 10:24:13;;;;;;;2.47;2.38;;;;;;;13.56;74.13;98246.34;4813344;29;20057;-85
2021/10/21 10:26:57;;;;;;;2.35;2.17;;;;;;;13.58;74.25;98262.75;4817515;29;20554;-83
2021/10/21 10:29:42;;;;;;;0.88;0.88;;;;;;;13.43;74.54;98266.81;4837996;29;20058;-83
2021/10/21 10:32:35;;;;;;;1.88;1.85;;;;;;;13.43;73.94;98269.41;4807541;29;20061;-84
2021/10/21 10:35:05;;;;;;;3.10;2.97;;;;;;;13.43;73.75;98269.41;4839556;29;20145;-83
2021/10/21 10:37:31;;;;;;;2.05;1.95;;;;;;;13.40;73.81;98264.47;4842518;29;20081;-82
2021/10/21 10:40:01;;;;;;;1.73;1.63;;;;;;;13.37;74.28;98254.25;4843092;29;20069;-83
2021/10/21 10:42:32;;;;;;;2.70;2.45;;;;;;;13.44;73.90;98255.34;4825121;29;20073;-85
2021/10/21 10:45:00;;;;;;;2.90;2.70;;;;;;;13.44;74.73;98249.28;4840589;29;20149;-80
2021/10/21 10:47:45;;;;;;;2.92;2.75;;;;;;;13.46;73.87;98255.19;4824217;29;20065;-80
2021/10/21 10:50:21;;;;;;;8.57;2.75;;;;;;;13.50;73.82;98246.09;4839458;29;20066;-79
2021/10/21 10:52:55;;;;;;;3.95;2.53;;;;;;;13.54;73.44;98232.56;4833215;29;20061;-78
2021/10/21 10:55:38;;;;;;;3.10;2.22;;;;;;;13.60;73.73;98248.69;4824737;29;20061;-81
2021/10/21 10:58:06;;;;;;;7.93;3.13;;;;;;;13.64;73.47;98239.56;4821073;29;20065;-76
2021/10/21 11:00:37;;;;;;;1.83;1.73;;;;;;;13.69;73.17;98232.09;4808388;29;20054;-84
2021/10/21 11:03:04;;;;;;;1.52;1.52;;;;;;;13.71;72.93;98227.53;4832076;29;20066;-84
2021/10/21 11:06:01;;;;;;;4.60;3.25;;;;;;;13.90;72.18;98237.97;4832313;29;20133;-82
2021/10/21 11:08:51;;;;;;;4.00;3.63;;;;;;;13.87;72.54;98239.06;4837047;29;20058;-81
2021/10/21 11:11:43;;;;;;;3.45;3.25;;;;;;;13.95;73.03;98233.09;4825965;29;20085;-81
2021/10/21 11:14:33;;;;;;;2.17;1.98;;;;;;;13.92;72.86;98222.88;4827572;29;20057;-78
2021/10/21 11:17:00;;;;;;;2.78;2.63;;;;;;;14.01;71.79;98216.75;4829711;29;20051;-78
2021/10/21 11:19:45;;;;;;;5.30;2.72;;;;;;;14.04;72.18;98222.53;4828274;29;20142;-78
2021/10/21 11:22:20;;;;;;;3.15;2.42;;;;;;;13.96;72.97;98240.84;4837650;29;20152;-79
2021/10/21 11:24:50;;;;;;;3.10;2.90;;;;;;;14.02;72.65;98239.41;4838095;29;20054;-78
2021/10/21 11:27:18;;;;;;;2.47;2.28;;;;;;;13.91;72.35;98242.22;4838263;29;20049;-77
2021/10/21 11:29:47;;;;;;;4.60;2.72;;;;;;;13.89;72.65;98245.00;4838396;29;20539;-77
2021/10/21 11:32:14;;;;;;;3.08;2.85;;;;;;;13.91;72.48;98244.84;4838249;29;20060;-77
2021/10/21 11:34:40;;;;;;;1.50;1.50;;;;;;;13.90;72.91;98244.03;4821742;29;20114;-77
2021/10/21 11:37:06;;;;;;;3.33;3.13;;;;;;;13.86;73.01;98247.06;4818234;29;20045;-79
2021/10/21 11:39:37;;;;;;;4.43;2.40;;;;;;;13.88;72.47;98250.38;4837602;29;20432;-76
2021/10/21 11:42:07;;;;;;;3.47;3.20;;;;;;;13.99;72.26;98250.19;4806502;29;20060;-78
2021/10/21 11:44:34;;;;;;;2.45;2.25;;;;;;;14.02;72.04;98260.41;4806293;29;20987;-77